Latest Weather Observations for Barimunya

IDW60801

Issued at 7:35 pm WST Tuesday 30 September 2014 (issued every 30 minutes, with the page automatically refreshed every 10 minutes)

About weather observations | Map of weather stations | Latest weather observations for WA | Other Formats
Station Details ID: 505053 Name: BARIMUNYA Lat: -22.67 Lon: 119.16 Height: 629.17 m
Data from the previous 72 hours. | See also: Recent months for locations in Western Australia
Date/Time
WST
Temp
°C
App
Temp
°C
Dew
Point
Rel
Hum
%
Delta-T
°C
Wind Press
QNH
hPa
Press
MSL
hPa
Rain
since 9 am
mm
Dir
 
Spd
km/h
Gust
km/h
Spd
kts
Gust
kts
30/07:30pm 26.4 23.6 2.3 21 12.0 N 6 7 3 4 1016.4 1013.5 0.0
30/07:00pm 28.3 25.8 1.7 18 13.3 N 4 6 2 3 1016.0 1013.1 0.0
30/06:30pm 29.4 26.0 1.8 17 14.0 N 9 9 5 5 1015.7 1012.8 0.0
30/06:00pm 31.1 28.0 1.4 15 15.1 NNE 7 11 4 6 1015.2 1012.3 0.0
30/05:30pm 32.3 28.1 1.4 14 15.8 NNE 13 19 7 10 1015.0 1012.1 0.0
30/05:00pm 33.2 29.3 1.1 13 16.4 ENE 11 17 6 9 1014.7 1011.8 0.0
30/04:30pm 33.6 29.4 1.4 13 16.6 N 13 22 7 12 1014.6 1011.7 0.0
30/04:00pm 33.1 27.7 1.0 13 16.4 NNE 19 28 10 15 1014.7 1011.8 0.0
30/03:30pm 34.0 27.9 0.6 12 17.0 NE 22 32 12 17 1014.5 1011.6 0.0
30/03:00pm 33.2 27.7 2.1 14 16.2 NNE 20 28 11 15 1014.6 1011.7 0.0
30/02:30pm 33.3 29.0 1.2 13 16.5 NNE 13 28 7 15 1014.7 1011.8 0.0
30/02:00pm 33.7 29.5 1.5 13 16.6 E 13 26 7 14 1014.9 1012.0 0.0
30/01:30pm 33.3 27.7 1.2 13 16.5 NE 20 37 11 20 1015.1 1012.2 0.0
30/01:00pm 33.1 28.8 1.0 13 16.4 NE 13 24 7 13 1015.7 1012.8 0.0
30/12:30pm 32.6 27.7 1.7 14 15.9 E 17 28 9 15 1016.1 1013.2 0.0
30/12:00pm 31.6 26.5 0.9 14 15.5 E 17 24 9 13 1016.4 1013.5 0.0
30/11:30am 31.8 25.4 1.0 14 15.6 E 24 35 13 19 1016.8 1013.9 0.0
30/11:00am 31.8 24.6 1.0 14 15.6 ESE 28 41 15 22 1017.2 1014.4 0.0
30/10:30am 30.1 22.1 0.6 15 14.7 ESE 32 39 17 21 1017.5 1014.6 0.0
30/10:00am 30.0 22.8 0.6 15 14.6 ESE 28 39 15 21 1017.7 1014.8 0.0
30/09:30am 28.6 20.6 0.3 16 13.9 ESE 32 41 17 22 1018.0 1015.1 0.0
30/09:00am 27.9 20.3 0.6 17 13.4 SE 30 41 16 22 1018.1 1015.2 -
30/08:30am 26.9 19.2 -0.2 17 13.0 SE 30 41 16 22 1018.1 1015.2 -
30/08:00am 26.3 19.8 0.1 18 12.6 SE 24 32 13 17 1018.1 1015.2 -
30/07:30am 24.4 19.6 0.0 20 11.5 SE 15 24 8 13 1018.1 1015.2 -
30/07:00am 21.5 19.7 1.2 26 9.6 CALM 0 0 0 0 1017.9 1015.0 -
30/06:30am 20.5 16.5 0.4 26 9.3 S 11 15 6 8 1017.4 1014.5 -
30/06:00am 19.6 15.2 0.6 28 8.8 SSE 13 15 7 8 1017.0 1014.2 -
30/05:30am 19.7 15.8 1.2 29 8.6 S 11 13 6 7 1016.9 1014.1 -
30/05:00am 19.6 16.1 1.1 29 8.6 S 9 13 5 7 1016.7 1013.8 -
30/04:30am 20.4 16.1 1.3 28 9.0 SSW 13 15 7 8 1016.5 1013.6 -
30/04:00am 21.2 17.4 1.5 27 9.4 S 11 15 6 8 1016.4 1013.5 -
30/03:30am 21.0 17.6 1.8 28 9.2 SSW 9 11 5 6 1016.4 1013.5 -
30/03:00am 21.3 18.2 1.6 27 9.4 SSW 7 11 4 6 1016.1 1013.2 0.0
30/02:30am 21.8 18.7 1.5 26 9.7 WSW 7 9 4 5 1016.1 1013.2 -
30/02:00am 22.2 19.1 1.3 25 10.0 WSW 7 9 4 5 1016.2 1013.3 -
30/01:30am 21.7 20.0 1.9 27 9.5 CALM 0 0 0 0 1016.3 1013.4 -
30/01:00am 22.4 19.4 2.0 26 9.9 W 7 9 4 5 1016.4 1013.5 -
30/12:30am 22.7 19.9 2.2 26 10.0 W 6 7 3 4 1016.5 1013.6 -
30/12:00am 22.6 20.9 2.1 26 9.9 SSW 0 0 0 0 1016.7 1013.8 -
 
Date/Time
WST
Temp
°C
App
Temp
°C
Dew
Point
Rel
Hum
%
Delta-T
°C
Wind Press
QNH
hPa
Press
MSL
hPa
Rain
since 9 am
mm
Dir
 
Spd
km/h
Gust
km/h
Spd
kts
Gust
kts
29/11:30pm 23.7 22.1 2.5 25 10.5 CALM 0 0 0 0 1016.8 1013.9 -
29/11:00pm 23.5 20.8 2.4 25 10.4 SSW 6 9 3 5 1017.0 1014.2 -
29/10:30pm 25.2 22.9 2.6 23 11.3 W 4 9 2 5 1017.1 1014.3 -
29/10:00pm 24.2 21.3 2.4 24 10.8 WNW 7 9 4 5 1017.1 1014.3 -
29/09:30pm 25.0 23.4 2.4 23 11.2 CALM 0 0 0 0 1017.0 1014.2 -
29/09:00pm 24.9 21.5 1.7 22 11.4 WSW 9 13 5 7 1016.9 1014.1 -
29/08:30pm 26.6 23.6 1.8 20 12.3 NW 7 11 4 6 1016.7 1013.8 -
29/08:00pm 27.2 23.5 2.3 20 12.5 NNW 11 15 6 8 1016.5 1013.6 -
29/07:30pm 27.2 23.8 1.6 19 12.7 NNW 9 11 5 6 1016.1 1013.2 -
29/07:00pm 28.2 24.4 1.7 18 13.3 NNW 11 15 6 8 1015.8 1012.9 -
29/06:30pm 28.8 24.9 1.3 17 13.7 NW 11 17 6 9 1015.4 1012.6 -
29/06:00pm 29.8 25.5 1.3 16 14.3 WNW 13 19 7 10 1015.0 1012.1 -
29/05:30pm 30.7 25.8 2.0 16 14.7 NW 17 24 9 13 1014.7 1011.8 -
29/05:00pm 31.5 26.2 1.8 15 15.2 NW 19 28 10 15 1014.4 1011.5 -
29/04:30pm 32.3 26.9 2.4 15 15.5 WNW 20 26 11 14 1014.3 1011.4 -
29/04:00pm 31.0 25.8 2.3 16 14.8 NW 19 22 10 12 1014.3 1011.4 -
29/03:30pm 32.2 27.7 2.3 15 15.5 NW 15 30 8 16 1014.1 1011.2 -
29/03:00pm 31.9 26.6 3.0 16 15.1 NW 20 30 11 16 1014.3 1011.4 0.0
29/02:30pm 32.5 27.1 2.5 15 15.6 WNW 20 30 11 16 1014.4 1011.5 0.0
29/02:00pm 32.4 26.8 3.4 16 15.3 NW 22 33 12 18 1014.6 1011.7 0.0
29/01:30pm 31.1 26.0 3.2 17 14.6 WNW 19 37 10 20 1014.9 1012.0 0.0
29/01:23pm 31.2 24.4 3.3 17 14.6 NNW 28 43 15 23 1015.0 1012.1 0.0
29/01:00pm 30.7 26.0 2.9 17 14.4 NW 17 24 9 13 1015.3 1012.4 0.0
29/12:30pm 30.7 27.1 2.9 17 14.4 WNW 11 24 6 13 1015.8 1012.9 0.0
29/12:00pm 29.3 25.4 3.3 19 13.5 NNW 13 22 7 12 1016.3 1013.4 0.0
29/11:30am 28.7 25.2 3.5 20 13.1 SSE 11 17 6 9 1016.7 1013.8 0.0
29/11:00am 28.8 26.1 3.6 20 13.1 SW 7 17 4 9 1017.2 1014.4 0.0
29/10:30am 28.5 26.1 4.1 21 12.8 ENE 6 17 3 9 1017.5 1014.6 0.0
29/10:00am 27.3 24.6 3.7 22 12.2 E 7 17 4 9 1017.8 1014.9 0.0
29/09:30am 26.6 22.3 3.2 22 11.9 E 15 20 8 11 1018.0 1015.1 0.0
29/09:00am 25.6 22.0 2.9 23 11.4 SE 11 17 6 9 1018.2 1015.3 0.0
29/08:30am 24.8 20.9 3.5 25 10.8 SE 13 17 7 9 1018.0 1015.1 0.0
29/08:00am 23.2 19.1 4.2 29 9.6 S 15 20 8 11 1017.9 1015.0 0.0
29/07:30am 21.8 18.8 3.9 31 8.9 S 9 15 5 8 1017.8 1014.9 0.0
29/07:00am 20.1 18.7 3.8 34 8.0 CALM 0 0 0 0 1017.6 1014.7 0.0
29/06:30am 17.9 16.2 3.8 39 6.8 S 2 7 1 4 1017.4 1014.5 0.0
29/06:00am 16.7 14.5 3.4 41 6.3 S 4 7 2 4 1017.2 1014.4 0.0
29/05:30am 17.0 14.5 4.0 42 6.3 S 6 7 3 4 1016.8 1013.9 0.0
29/05:00am 18.7 15.2 3.7 37 7.3 S 11 13 6 7 1016.3 1013.4 0.0
29/04:30am 19.1 15.3 3.7 36 7.5 S 13 15 7 8 1016.0 1013.1 0.0
29/04:00am 19.3 15.5 3.9 36 7.6 S 13 15 7 8 1016.0 1013.1 0.0
29/03:30am 19.2 15.8 3.8 36 7.5 S 11 13 6 7 1015.9 1013.0 0.0
29/03:00am 19.7 16.3 4.2 36 7.7 S 11 13 6 7 1016.0 1013.1 0.0
29/02:30am 20.0 16.6 4.1 35 7.9 S 11 11 6 6 1016.1 1013.2 0.0
29/02:00am 19.6 16.5 3.7 35 7.8 SSW 9 11 5 6 1016.4 1013.5 0.0
29/01:30am 20.6 17.2 4.2 34 8.2 SSW 11 17 6 9 1016.5 1013.6 0.0
29/01:00am 20.6 18.2 4.2 34 8.2 SW 6 9 3 5 1016.4 1013.5 0.0
29/12:30am 21.0 19.7 4.1 33 8.4 CALM 0 6 0 3 1016.4 1013.5 0.0
29/12:00am 19.9 18.4 3.2 33 8.1 CALM 0 0 0 0 1016.5 1013.6 0.0
 
Date/Time
WST
Temp
°C
App
Temp
°C
Dew
Point
Rel
Hum
%
Delta-T
°C
Wind Press
QNH
hPa
Press
MSL
hPa
Rain
since 9 am
mm
Dir
 
Spd
km/h
Gust
km/h
Spd
kts
Gust
kts
28/11:30pm 22.4 19.9 4.5 31 9.1 SW 7 9 4 5 1016.7 1013.8 0.0
28/11:00pm 22.2 21.0 4.7 32 8.9 CALM 0 0 0 0 1016.8 1013.9 0.0
28/10:30pm 22.2 20.7 2.8 28 9.5 CALM 0 0 0 0 1017.0 1014.2 0.0
28/10:00pm 23.5 21.1 4.5 29 9.7 SW 6 7 3 4 1017.1 1014.3 0.0
28/09:30pm 23.7 22.4 4.1 28 10.0 CALM 0 0 0 0 1017.1 1014.3 0.0
28/09:00pm 24.6 22.1 3.8 26 10.6 SW 6 9 3 5 1016.9 1014.1 0.0
28/08:30pm 25.0 22.3 3.6 25 10.9 SW 7 7 4 4 1016.7 1013.8 0.0
28/08:00pm 25.8 23.3 3.7 24 11.3 SSE 6 7 3 4 1016.5 1013.6 0.0
28/07:30pm 26.6 23.5 3.8 23 11.7 S 9 11 5 6 1016.1 1013.2 0.0
28/07:00pm 27.2 23.9 2.3 20 12.5 SSW 9 13 5 7 1015.8 1012.9 0.0
28/06:30pm 27.9 24.9 2.2 19 13.0 WSW 7 11 4 6 1015.3 1012.4 0.0
28/06:00pm 29.4 25.1 1.0 16 14.2 W 13 19 7 10 1015.0 1012.1 0.0
28/05:30pm 30.3 25.4 1.7 16 14.5 NW 17 24 9 13 1014.8 1011.9 0.0
28/05:00pm 31.1 26.0 0.5 14 15.3 W 17 24 9 13 1014.7 1011.8 0.0
28/04:30pm 31.1 25.5 1.4 15 15.1 NW 20 32 11 17 1014.6 1011.7 0.0
28/04:00pm 31.5 25.2 1.8 15 15.2 NNW 24 33 13 18 1014.4 1011.5 0.0
28/03:30pm 31.5 26.2 1.8 15 15.2 NW 19 26 10 14 1014.4 1011.5 0.0
28/03:00pm 32.3 26.1 2.4 15 15.5 W 24 37 13 20 1014.5 1011.6 0.0
28/02:30pm 31.6 26.1 1.8 15 15.3 WSW 20 35 11 19 1014.7 1011.8 0.0
28/02:00pm 31.4 25.7 2.6 16 14.9 W 22 32 12 17 1015.1 1012.2 0.0
28/01:30pm 30.0 25.4 1.5 16 14.4 W 15 32 8 17 1015.5 1012.7 0.0
28/01:00pm 31.0 25.2 2.3 16 14.8 W 22 35 12 19 1016.0 1013.1 0.0
28/12:30pm 29.9 24.5 2.2 17 14.1 W 20 35 11 19 1016.4 1013.5 0.0
28/12:12pm 30.7 23.9 2.9 17 14.4 WNW 28 48 15 26 1016.7 1013.8 0.0
28/12:00pm 30.2 24.1 2.5 17 14.2 WNW 24 30 13 16 1016.8 1013.9 0.0
28/11:30am 29.2 23.7 1.7 17 13.9 WSW 20 28 11 15 1017.2 1014.4 0.0
28/11:00am 28.2 22.2 0.9 17 13.5 WSW 22 33 12 18 1017.8 1014.9 0.0
28/10:30am 27.6 23.1 1.9 19 12.9 WSW 15 24 8 13 1018.2 1015.3 0.0
28/10:00am 27.2 21.9 1.6 19 12.7 WSW 19 32 10 17 1018.6 1015.8 0.0
28/09:30am 26.1 21.2 2.1 21 11.9 WSW 17 33 9 18 1018.8 1016.0 0.0
28/09:00am 25.3 20.3 1.4 21 11.7 WSW 17 28 9 15 1018.9 1016.1 0.0
28/08:30am 23.9 21.1 3.2 26 10.4 WSW 7 13 4 7 1019.1 1016.2 0.0
28/08:00am 22.4 19.3 3.5 29 9.4 SW 9 11 5 6 1018.9 1016.1 0.0
28/07:30am 21.5 18.4 3.7 31 8.8 WSW 9 13 5 7 1018.7 1015.9 0.0
28/07:00am 19.6 17.0 4.1 36 7.6 WSW 7 11 4 6 1018.4 1015.6 0.0
28/06:30am 17.7 14.7 3.9 40 6.7 SW 9 13 5 7 1018.3 1015.5 0.0
28/06:00am 16.4 13.2 3.1 41 6.3 SW 9 11 5 6 1018.0 1015.1 0.0
28/05:30am 16.8 14.1 3.5 41 6.4 SW 7 9 4 5 1017.9 1015.0 0.0
28/05:00am 16.3 13.5 3.4 42 6.1 SW 7 9 4 5 1017.7 1014.8 0.0
28/04:30am 16.8 14.5 2.8 39 6.6 SW 4 9 2 5 1017.4 1014.5 0.0
28/04:00am 17.5 14.2 2.7 37 7.0 SW 9 11 5 6 1017.2 1014.4 0.0
28/03:30am 17.8 14.5 2.5 36 7.2 WSW 9 13 5 7 1017.1 1014.3 0.0
28/03:00am 16.8 15.0 1.3 35 7.1 CALM 0 6 0 3 1017.0 1014.2 0.0
28/02:30am 17.8 14.8 0.9 32 7.7 WNW 6 9 3 5 1017.1 1014.3 0.0
28/02:00am 18.0 16.1 0.6 31 7.9 CALM 0 0 0 0 1017.1 1014.3 0.0
28/01:30am 18.7 16.8 0.8 30 8.2 CALM 0 0 0 0 1017.2 1014.4 0.0
28/01:00am 18.9 17.0 0.5 29 8.4 CALM 0 4 0 2 1017.5 1014.6 0.0
28/12:30am 19.4 16.1 -0.1 27 8.9 WNW 7 11 4 6 1017.6 1014.7 0.0
28/12:00am 20.2 16.5 0.1 26 9.2 WNW 9 11 5 6 1017.8 1014.9 0.0
 
Date/Time
WST
Temp
°C
App
Temp
°C
Dew
Point
Rel
Hum
%
Delta-T
°C
Wind Press
QNH
hPa
Press
MSL
hPa
Rain
since 9 am
mm
Dir
 
Spd
km/h
Gust
km/h
Spd
kts
Gust
kts
27/11:30pm 21.2 17.2 0.4 25 9.7 W 11 13 6 7 1017.9 1015.0 0.0
27/11:00pm 22.3 18.0 0.8 24 10.1 W 13 15 7 8 1017.8 1014.9 0.0
27/10:30pm 23.5 18.3 -0.1 21 11.1 W 17 20 9 11 1017.9 1015.0 0.0
27/10:00pm 22.9 18.4 -0.6 21 10.8 W 13 17 7 9 1017.9 1015.0 0.0
27/09:30pm 23.7 19.1 -1.3 19 11.5 W 13 17 7 9 1017.8 1014.9 0.0
27/09:00pm 24.1 19.5 -0.9 19 11.6 WNW 13 17 7 9 1017.5 1014.6 0.0
27/08:30pm 25.2 20.5 -1.6 17 12.4 WNW 13 17 7 9 1017.1 1014.3 0.0
27/08:00pm 25.7 21.4 -2.0 16 12.7 WNW 11 13 6 7 1016.7 1013.8 0.0

Other Formats:

Comma delimited format used in spreadsheet applications
http://www.bom.gov.au/fwo/IDW60801/IDW60801.99313.axf

JavaScript Object Notation format (JSON) in row-major order
http://www.bom.gov.au/fwo/IDW60801/IDW60801.99313.json